Elon, NC

19:25 EST le 20 décembre 2014 (GMT -0500)
Burlington-Alamance Regional | Change Station
CLOSE
Current Station
Aéroport
Location: Burlington,
Altitude: 617 ft
Stations météo à proximité

Alt. 617 ft 36.05 °N, 79.47 °W | Updated 20 minutes ago

Couvert
Couvert
37 ° F
Paraît 37 ° F
N
0
Vent Variable Vent de Nord

Aujourd'hui
Haut(e) -- | Bas -- ° F
--% Risque de précip.
Hier
Haut(e) -- | Bas -- ° F
Precip. -- pouce
7:24 AM 5:06 PM
Lune descendante, 1% visible
Pression 30.26 pouce
Visibilité 9.0 Miles terrestres
Nuages Nuageux 1100 ft
Couvert 3500 ft
Point de rosée 32 ° F
Humidité 82%
Précipitations 0.01 pouce
Profondeur de la couche neigeuse Non disponible.
UV 0 sur 12
Pollen .80 sur 12
Qualité de l'air Non disponible.
Flu Activity Non disponible.
SPECI KBUY 210005Z AUTO 00000KT 9SM BKN011 OVC035 03/00 A3026 RMK AO2 T00280000

More Conditions Fewer Conditions

Pression 30.26 pouce
Visibilité 9.0 Miles terrestres
Nuages Nuageux 1100 ft
Couvert 3500 ft
Point de rosée 32 ° F
Humidité 82%
Précipitations 0.01 pouce
Profondeur de la couche neigeuse Non disponible.
UV 0 sur 12
Pollen .80 sur 12
Qualité de l'air Non disponible.
Flu Activity Non disponible.
SPECI KBUY 210005Z AUTO 00000KT 9SM BKN011 OVC035 03/00 A3026 RMK AO2 T00280000

More Conditions Fewer Conditions

10-Day Weather Forecast

Almanac

Astronomie

Dec. 20, 2014 Lever Coucher
Temps réel
Crépuscule civil
Crépuscule nautique
Crépuscule astronomique
Lune
Durée de lumière visible
Longueur du jour
Tomorrow will be .
, % of the Moon is Illuminated

Extrêmes aujourd'hui

State Highs State Lows

Community

WunderPhotos

Upload Photos

1,779,325 Photos téléchargées !

WunderBlogs® & News

Nearby

Qualité de l'air

  Qualité de l'air Indice de la qualité de l'air Polluant
Not available.

Épaisseur de neige

Station Depth Altitude

Activité sismique

Ville Distance Mag. Time & Date
Minimum magnitude displayed is 2.5.

Températures des eaux côtières

Lieu Température

Stations météo à proximité